createdAt,value
2023-03-02T00:01:26.983Z,-1.80
2023-03-02T00:03:54.631Z,-1.79
2023-03-02T00:06:22.047Z,-1.83
2023-03-02T00:08:49.245Z,-1.95
2023-03-02T00:11:16.500Z,-2.02
2023-03-02T00:13:44.266Z,-2.24
2023-03-02T00:16:11.544Z,-2.26
2023-03-02T00:18:38.852Z,-2.20
2023-03-02T00:21:10.360Z,-2.06
2023-03-02T00:23:38.377Z,-2.07
2023-03-02T00:26:06.886Z,-2.05
2023-03-02T00:28:35.445Z,-2.09
2023-03-02T00:31:05.466Z,-2.10
2023-03-02T00:33:33.647Z,-2.11
2023-03-02T00:36:01.138Z,-2.04
2023-03-02T00:38:29.956Z,-2.02
2023-03-02T00:40:59.316Z,-2.06
2023-03-02T00:43:28.043Z,-2.13
2023-03-02T00:45:55.782Z,-2.16
2023-03-02T00:48:23.616Z,-2.13
2023-03-02T00:50:50.796Z,-2.13
2023-03-02T00:53:18.069Z,-2.14
2023-03-02T00:55:54.327Z,-2.16
2023-03-02T00:58:21.876Z,-2.22
2023-03-02T01:00:49.520Z,-2.31
2023-03-02T01:03:16.867Z,-2.28
2023-03-02T01:05:44.260Z,-2.28
2023-03-02T01:08:12.127Z,-2.25
2023-03-02T01:10:40.074Z,-2.28
2023-03-02T01:13:07.676Z,-2.26
2023-03-02T01:15:35.360Z,-2.27
2023-03-02T01:18:02.710Z,-2.33
2023-03-02T01:20:30.067Z,-2.30
2023-03-02T01:22:57.425Z,-2.30
2023-03-02T01:25:24.651Z,-2.25
2023-03-02T01:27:51.924Z,-2.43
2023-03-02T01:30:19.308Z,-2.43
2023-03-02T01:32:46.542Z,-2.43
2023-03-02T01:35:14.109Z,-2.36
2023-03-02T01:37:41.314Z,-2.37
2023-03-02T01:40:11.192Z,-2.41
2023-03-02T01:42:39.969Z,-2.42
2023-03-02T01:45:53.564Z,-2.39
2023-03-02T01:48:35.168Z,-2.48
2023-03-02T01:51:03.393Z,-2.55
2023-03-02T01:53:31.741Z,-2.58
2023-03-02T01:56:00.312Z,-2.56
2023-03-02T01:58:27.872Z,-2.61
2023-03-02T02:00:57.343Z,-2.55
2023-03-02T02:03:27.467Z,-2.53
2023-03-02T02:06:18.113Z,-2.54
2023-03-02T02:08:46.384Z,-2.56
2023-03-02T02:11:14.187Z,-2.58
2023-03-02T02:13:41.734Z,-2.55
2023-03-02T02:16:09.117Z,-2.51
2023-03-02T02:18:39.454Z,-2.50
2023-03-02T02:21:07.973Z,-2.55
2023-03-02T02:24:01.755Z,-2.59
2023-03-02T02:26:44.558Z,-2.61
2023-03-02T02:29:22.752Z,-2.60
2023-03-02T02:32:02.915Z,-2.69
2023-03-02T02:34:34.647Z,-2.68
2023-03-02T02:37:06.801Z,-2.70
2023-03-02T02:39:36.715Z,-2.70
2023-03-02T02:42:07.486Z,-2.83
2023-03-02T02:44:34.740Z,-2.75
2023-03-02T02:47:02.014Z,-2.76
2023-03-02T02:49:35.568Z,-2.74
2023-03-02T02:52:04.128Z,-2.73
2023-03-02T02:54:32.622Z,-2.83
2023-03-02T02:57:00.703Z,-2.85
2023-03-02T02:59:31.906Z,-2.85
2023-03-02T03:02:00.516Z,-2.83
2023-03-02T03:04:30.068Z,-2.82
2023-03-02T03:07:03.057Z,-2.84
2023-03-02T03:09:30.635Z,-2.76
2023-03-02T03:12:18.693Z,-2.70
2023-03-02T03:14:46.612Z,-2.76
2023-03-02T03:17:14.039Z,-2.88
2023-03-02T03:19:43.567Z,-3.01
2023-03-02T03:22:12.122Z,-3.12
2023-03-02T03:24:40.446Z,-3.17
2023-03-02T03:27:09.638Z,-3.20
2023-03-02T03:29:38.772Z,-3.22
2023-03-02T03:32:06.983Z,-3.12
2023-03-02T03:34:40.481Z,-3.01
2023-03-02T03:37:13.359Z,-3.01
2023-03-02T03:39:41.051Z,-3.07
2023-03-02T03:42:08.240Z,-3.10
2023-03-02T03:44:35.630Z,-3.17
2023-03-02T03:47:02.902Z,-3.16
2023-03-02T03:49:30.120Z,-3.18
2023-03-02T03:51:57.552Z,-3.12
2023-03-02T03:54:24.740Z,-3.11
2023-03-02T03:56:51.999Z,-3.10
2023-03-02T03:59:24.643Z,-3.03
2023-03-02T04:01:54.921Z,-3.09
2023-03-02T04:04:26.169Z,-3.09
2023-03-02T04:06:54.495Z,-3.05
2023-03-02T04:09:22.995Z,-3.10
2023-03-02T04:11:52.928Z,-3.20
2023-03-02T04:14:21.243Z,-3.17
2023-03-02T04:16:48.476Z,-3.14
2023-03-02T04:19:17.527Z,-3.15
2023-03-02T04:21:50.337Z,-3.17
2023-03-02T04:24:19.404Z,-3.22
2023-03-02T04:26:49.020Z,-3.15
2023-03-02T04:29:16.593Z,-3.15
2023-03-02T04:31:43.857Z,-3.08
2023-03-02T04:34:11.384Z,-3.07
2023-03-02T04:36:40.137Z,-3.22
2023-03-02T04:39:08.098Z,-3.22
2023-03-02T04:41:36.036Z,-3.17
2023-03-02T04:44:03.658Z,-3.17
2023-03-02T04:46:31.161Z,-3.19
2023-03-02T04:48:58.554Z,-3.14
2023-03-02T04:51:35.206Z,-3.15
2023-03-02T04:54:05.628Z,-3.15
2023-03-02T04:56:33.209Z,-3.11
2023-03-02T04:59:00.950Z,-3.12
2023-03-02T05:01:28.225Z,-3.11
2023-03-02T05:03:55.603Z,-3.11
2023-03-02T05:06:25.076Z,-3.15
2023-03-02T05:08:53.026Z,-3.18
2023-03-02T05:11:23.995Z,-3.18
2023-03-02T05:13:56.822Z,-3.11
2023-03-02T05:16:25.851Z,-3.07
2023-03-02T05:18:54.076Z,-3.07
2023-03-02T05:21:21.790Z,-3.03
2023-03-02T05:23:49.300Z,-3.06
2023-03-02T05:26:16.851Z,-3.05
2023-03-02T05:28:45.150Z,-3.07
2023-03-02T05:31:20.456Z,-3.06
2023-03-02T05:33:47.724Z,-3.02
2023-03-02T05:36:17.101Z,-3.02
2023-03-02T05:38:45.884Z,-3.01
2023-03-02T05:41:13.176Z,-3.01
2023-03-02T05:43:40.477Z,-3.00
2023-03-02T05:46:07.759Z,-3.00
2023-03-02T05:48:35.146Z,-3.00
2023-03-02T05:51:02.425Z,-3.00
2023-03-02T05:53:29.843Z,-3.01
2023-03-02T05:55:57.096Z,-3.03
2023-03-02T05:58:24.382Z,-3.03
2023-03-02T06:00:52.218Z,-3.01
2023-03-02T06:03:20.598Z,-2.99
2023-03-02T06:05:50.778Z,-2.97
2023-03-02T06:08:19.212Z,-2.95
2023-03-02T06:10:46.443Z,-2.93
2023-03-02T06:13:13.914Z,-2.94
2023-03-02T06:15:42.616Z,-2.89
2023-03-02T06:18:12.290Z,-2.83
2023-03-02T06:20:40.381Z,-2.82
2023-03-02T06:23:07.591Z,-2.80
2023-03-02T06:25:36.910Z,-2.79
2023-03-02T06:28:04.075Z,-2.77
2023-03-02T06:30:31.297Z,-2.82
2023-03-02T06:33:00.208Z,-2.76
2023-03-02T06:35:27.535Z,-2.72
2023-03-02T06:37:54.984Z,-2.64
2023-03-02T06:40:22.172Z,-2.62
2023-03-02T06:42:49.620Z,-2.53
2023-03-02T06:45:17.212Z,-2.44
2023-03-02T06:47:44.406Z,-2.42
2023-03-02T06:50:11.931Z,-2.29
2023-03-02T06:52:40.392Z,-2.24
2023-03-02T06:55:08.120Z,-2.16
2023-03-02T06:57:35.438Z,-2.13
2023-03-02T07:00:10.817Z,-2.06
2023-03-02T07:02:38.578Z,-1.88
2023-03-02T07:05:06.890Z,-1.83
2023-03-02T07:07:35.372Z,-1.71
2023-03-02T07:10:04.421Z,-1.60
2023-03-02T07:12:31.896Z,-1.41
2023-03-02T07:14:59.157Z,-1.27
2023-03-02T07:17:26.514Z,-1.28
2023-03-02T07:19:54.288Z,-1.07
2023-03-02T07:22:21.838Z,-0.90
2023-03-02T07:24:49.140Z,-0.76
2023-03-02T07:27:16.415Z,-0.63
2023-03-02T07:29:43.671Z,-0.45
2023-03-02T07:32:12.641Z,-0.45
2023-03-02T07:34:40.001Z,-0.38
2023-03-02T07:37:07.333Z,-0.16
2023-03-02T07:39:34.613Z,-0.01
2023-03-02T07:42:04.396Z,0.01
2023-03-02T07:44:31.846Z,0.16
2023-03-02T07:46:59.042Z,0.30
2023-03-02T07:49:28.358Z,0.30
2023-03-02T07:51:55.786Z,0.50
2023-03-02T07:54:26.355Z,0.44
2023-03-02T07:56:53.530Z,0.34
2023-03-02T07:59:20.767Z,0.47
2023-03-02T08:01:48.123Z,0.39
2023-03-02T08:04:15.448Z,0.45
2023-03-02T08:06:42.752Z,0.47
2023-03-02T08:09:10.095Z,0.67
2023-03-02T08:11:37.397Z,0.91
2023-03-02T08:14:04.646Z,0.77
2023-03-02T08:16:31.921Z,0.82
2023-03-02T08:19:04.572Z,0.84
2023-03-02T08:21:33.688Z,0.98
2023-03-02T08:24:01.134Z,0.91
2023-03-02T08:26:28.439Z,1.01
2023-03-02T08:28:55.825Z,1.12
2023-03-02T08:31:23.172Z,1.13
2023-03-02T08:33:50.525Z,1.11
2023-03-02T08:36:19.198Z,1.27
2023-03-02T08:38:47.399Z,1.25
2023-03-02T08:41:17.684Z,1.52
2023-03-02T08:43:45.081Z,1.55
2023-03-02T08:46:17.599Z,1.85
2023-03-02T08:48:45.384Z,1.80
2023-03-02T08:51:15.867Z,1.99
2023-03-02T08:53:45.322Z,2.25
2023-03-02T08:56:26.431Z,2.52
2023-03-02T08:58:55.453Z,2.69
2023-03-02T09:01:25.342Z,2.83
2023-03-02T09:03:53.146Z,2.76
2023-03-02T09:06:20.614Z,2.65
2023-03-02T09:08:48.116Z,2.80
2023-03-02T09:11:15.417Z,2.63
2023-03-02T09:13:43.017Z,2.34
2023-03-02T09:16:10.398Z,2.18
2023-03-02T09:18:37.805Z,2.17
2023-03-02T09:21:05.266Z,2.18
2023-03-02T09:23:33.329Z,2.18
2023-03-02T09:26:00.708Z,2.12
2023-03-02T09:28:28.258Z,2.14
2023-03-02T09:30:58.808Z,2.01
2023-03-02T09:33:26.405Z,2.11
2023-03-02T09:35:53.683Z,2.23
2023-03-02T09:38:21.029Z,2.43
2023-03-02T09:41:09.866Z,2.41
2023-03-02T09:44:01.113Z,2.13
2023-03-02T09:46:36.089Z,2.31
2023-03-02T09:49:48.297Z,2.53
2023-03-02T09:52:49.697Z,2.65
2023-03-02T09:55:26.938Z,3.00
2023-03-02T09:57:55.267Z,3.05
2023-03-02T10:00:32.060Z,3.13
2023-03-02T10:03:16.766Z,3.10
2023-03-02T10:05:49.979Z,3.15
2023-03-02T10:08:22.908Z,3.32
2023-03-02T10:11:08.043Z,3.31
2023-03-02T10:13:48.426Z,3.25
2023-03-02T10:16:30.268Z,3.22
2023-03-02T10:19:08.727Z,3.38
2023-03-02T10:21:51.626Z,3.30
2023-03-02T10:24:32.961Z,3.16
2023-03-02T10:27:11.611Z,3.04
2023-03-02T10:30:06.866Z,3.06
2023-03-02T10:32:37.859Z,3.23
2023-03-02T10:35:16.945Z,3.21
2023-03-02T10:37:44.238Z,3.21
2023-03-02T10:40:39.424Z,3.11
2023-03-02T10:43:07.860Z,3.07
2023-03-02T10:45:35.156Z,3.12
2023-03-02T10:48:06.427Z,3.15
2023-03-02T10:50:33.997Z,3.18
2023-03-02T10:53:03.516Z,3.40
2023-03-02T10:55:33.531Z,3.60
2023-03-02T10:58:07.208Z,3.59
2023-03-02T11:00:36.674Z,3.58
2023-03-02T11:03:19.523Z,3.41
2023-03-02T11:05:46.773Z,3.13
2023-03-02T11:08:26.270Z,3.34
2023-03-02T11:11:00.561Z,3.42
2023-03-02T11:13:32.876Z,3.46
2023-03-02T11:16:18.649Z,3.64
2023-03-02T11:18:47.950Z,3.65
2023-03-02T11:21:27.515Z,3.75
2023-03-02T11:24:11.195Z,3.63
2023-03-02T11:26:44.392Z,3.57
2023-03-02T11:29:34.364Z,3.64
2023-03-02T11:32:25.643Z,3.78
2023-03-02T11:35:00.798Z,3.81
2023-03-02T11:37:28.011Z,3.82
2023-03-02T11:40:22.488Z,3.94
2023-03-02T11:42:50.128Z,4.05
2023-03-02T11:45:21.583Z,4.09
2023-03-02T11:48:02.632Z,4.00
2023-03-02T11:50:32.789Z,4.00
2023-03-02T11:53:00.601Z,3.93
2023-03-02T11:55:30.164Z,4.01
2023-03-02T11:58:03.287Z,4.39
2023-03-02T12:00:42.482Z,4.53
2023-03-02T12:03:15.867Z,4.65
2023-03-02T12:05:58.866Z,4.42
2023-03-02T12:08:37.100Z,4.28
2023-03-02T12:11:20.502Z,4.20
2023-03-02T12:14:02.210Z,4.30
2023-03-02T12:16:37.192Z,4.37
2023-03-02T12:19:16.382Z,4.25
2023-03-02T12:22:09.846Z,4.26
2023-03-02T12:24:40.297Z,4.12
2023-03-02T12:27:13.687Z,4.12
2023-03-02T12:29:48.734Z,4.17
2023-03-02T12:32:28.517Z,4.32
2023-03-02T12:35:07.696Z,4.47
2023-03-02T12:37:51.125Z,4.60
2023-03-02T12:40:40.788Z,4.60
2023-03-02T12:43:29.246Z,4.42
2023-03-02T12:46:26.744Z,4.33
2023-03-02T12:49:06.681Z,4.39
2023-03-02T12:51:51.887Z,4.48
2023-03-02T12:54:24.210Z,4.64
2023-03-02T12:57:15.343Z,4.62
2023-03-02T12:59:43.533Z,4.64
2023-03-02T13:02:16.502Z,4.65
2023-03-02T13:04:44.115Z,4.66
2023-03-02T13:07:20.348Z,4.56
2023-03-02T13:09:56.539Z,4.56
2023-03-02T13:12:25.930Z,4.50
2023-03-02T13:14:56.141Z,4.45
2023-03-02T13:17:26.277Z,4.51
2023-03-02T13:19:53.793Z,4.57
2023-03-02T13:22:22.530Z,4.58
2023-03-02T13:24:54.903Z,4.48
2023-03-02T13:27:24.413Z,4.38
2023-03-02T13:29:52.834Z,4.35
2023-03-02T13:32:25.401Z,4.41
2023-03-02T13:34:56.038Z,4.40
2023-03-02T13:37:39.177Z,4.38
2023-03-02T13:40:32.028Z,4.39
2023-03-02T13:42:59.367Z,4.34
2023-03-02T13:45:28.004Z,4.37
2023-03-02T13:47:57.759Z,4.42
2023-03-02T13:50:30.899Z,4.34
2023-03-02T13:53:01.530Z,4.36
2023-03-02T13:55:29.188Z,4.32
2023-03-02T13:57:56.877Z,4.25
2023-03-02T14:00:32.765Z,4.28
2023-03-02T14:03:00.034Z,4.25
2023-03-02T14:05:33.288Z,4.14
2023-03-02T14:08:02.734Z,4.09
2023-03-02T14:10:30.382Z,4.14
2023-03-02T14:13:01.617Z,4.15
2023-03-02T14:15:28.981Z,4.08
2023-03-02T14:17:56.222Z,4.16
2023-03-02T14:20:23.522Z,4.08
2023-03-02T14:22:50.816Z,4.05
2023-03-02T14:25:18.336Z,4.07
2023-03-02T14:27:47.275Z,4.10
2023-03-02T14:30:18.622Z,4.10
2023-03-02T14:32:48.522Z,4.00
2023-03-02T14:35:16.979Z,3.84
2023-03-02T14:37:49.182Z,3.66
2023-03-02T14:40:18.927Z,3.58
2023-03-02T14:42:49.277Z,3.58
2023-03-02T14:45:17.235Z,3.46
2023-03-02T14:47:46.752Z,3.39
2023-03-02T14:50:14.249Z,3.23
2023-03-02T14:52:49.968Z,3.16
2023-03-02T14:55:28.711Z,3.15
2023-03-02T14:58:22.612Z,3.01
2023-03-02T15:00:50.491Z,2.93
2023-03-02T15:03:25.768Z,2.74
2023-03-02T15:06:01.247Z,2.65
2023-03-02T15:08:29.017Z,2.68
2023-03-02T15:10:56.356Z,2.63
2023-03-02T15:13:23.533Z,2.71
2023-03-02T15:15:52.720Z,2.64
2023-03-02T15:18:20.107Z,2.46
2023-03-02T15:20:47.414Z,2.44
2023-03-02T15:23:14.726Z,2.46
2023-03-02T15:25:43.035Z,2.39
2023-03-02T15:28:10.679Z,2.28
2023-03-02T15:30:37.960Z,2.09
2023-03-02T15:33:05.156Z,2.10
2023-03-02T15:35:32.411Z,2.01
2023-03-02T15:38:02.541Z,1.86
2023-03-02T15:40:29.774Z,1.85
2023-03-02T15:42:57.195Z,1.93
2023-03-02T15:45:24.476Z,1.96
2023-03-02T15:47:51.738Z,1.75
2023-03-02T15:50:19.054Z,1.65
2023-03-02T15:52:46.281Z,1.50
2023-03-02T15:55:16.716Z,1.42
2023-03-02T15:57:44.031Z,1.42
2023-03-02T16:00:13.421Z,1.52
2023-03-02T16:02:40.998Z,1.59
2023-03-02T16:05:09.105Z,1.42
2023-03-02T16:07:37.241Z,1.34
2023-03-02T16:10:05.136Z,1.23
2023-03-02T16:12:32.355Z,1.28
2023-03-02T16:14:59.708Z,1.25
2023-03-02T16:17:27.388Z,1.12
2023-03-02T16:19:54.697Z,1.13
2023-03-02T16:22:21.889Z,1.11
2023-03-02T16:24:50.190Z,1.05
2023-03-02T16:27:17.778Z,1.13
2023-03-02T16:29:45.098Z,1.19
2023-03-02T16:32:12.417Z,1.21
2023-03-02T16:34:40.112Z,1.04
2023-03-02T16:37:07.395Z,1.21
2023-03-02T16:39:34.885Z,1.19
2023-03-02T16:42:02.083Z,1.21
2023-03-02T16:44:29.279Z,1.22
2023-03-02T16:46:57.579Z,1.25
2023-03-02T16:49:24.889Z,1.23
2023-03-02T16:51:57.932Z,1.03
2023-03-02T16:54:25.254Z,1.21
2023-03-02T16:56:52.491Z,1.07
2023-03-02T16:59:19.685Z,0.93
2023-03-02T17:01:47.049Z,0.82
2023-03-02T17:04:14.365Z,0.77
2023-03-02T17:06:59.954Z,0.65
2023-03-02T17:09:28.351Z,0.64
2023-03-02T17:11:55.853Z,0.70
2023-03-02T17:14:23.176Z,0.63
2023-03-02T17:16:50.415Z,0.29
2023-03-02T17:19:17.737Z,0.14
2023-03-02T17:21:44.931Z,0.24
2023-03-02T17:24:12.788Z,0.43
2023-03-02T17:26:40.050Z,0.34
2023-03-02T17:29:08.050Z,0.57
2023-03-02T17:31:35.315Z,0.72
2023-03-02T17:34:02.556Z,0.86
2023-03-02T17:36:31.103Z,0.77
2023-03-02T17:38:58.351Z,0.60
2023-03-02T17:41:25.620Z,0.51
2023-03-02T17:43:52.808Z,0.63
2023-03-02T17:46:23.278Z,0.65
2023-03-02T17:48:54.151Z,0.84
2023-03-02T17:51:23.240Z,0.98
2023-03-02T17:53:51.434Z,1.04
2023-03-02T17:56:22.033Z,1.08
2023-03-02T17:58:57.491Z,0.86
2023-03-02T18:01:24.920Z,0.87
2023-03-02T18:03:52.258Z,0.93
2023-03-02T18:06:20.709Z,0.90
2023-03-02T18:08:49.395Z,1.03
2023-03-02T18:11:21.856Z,1.04
2023-03-02T18:13:49.532Z,1.13
2023-03-02T18:16:16.853Z,0.99
2023-03-02T18:18:44.038Z,1.05
2023-03-02T18:21:11.325Z,1.12
2023-03-02T18:23:39.780Z,1.04
2023-03-02T18:26:07.015Z,1.10
2023-03-02T18:28:34.217Z,0.85
2023-03-02T18:31:01.453Z,0.84
2023-03-02T18:33:28.759Z,0.78
2023-03-02T18:35:56.212Z,0.57
2023-03-02T18:38:30.589Z,0.58
2023-03-02T18:41:03.154Z,0.38
2023-03-02T18:43:32.776Z,0.17
2023-03-02T18:46:00.422Z,0.18
2023-03-02T18:48:27.801Z,0.18
2023-03-02T18:50:55.398Z,0.32
2023-03-02T18:53:22.673Z,0.34
2023-03-02T18:55:50.636Z,0.55
2023-03-02T18:58:20.280Z,0.70
2023-03-02T19:00:48.154Z,0.78
2023-03-02T19:03:17.196Z,0.70
2023-03-02T19:05:44.786Z,0.77
2023-03-02T19:08:15.306Z,0.76
2023-03-02T19:10:42.578Z,0.78
2023-03-02T19:13:12.058Z,0.73
2023-03-02T19:15:43.067Z,0.69
2023-03-02T19:18:21.347Z,0.62
2023-03-02T19:20:50.675Z,0.72
2023-03-02T19:23:18.009Z,0.61
2023-03-02T19:25:45.403Z,0.57
2023-03-02T19:28:12.920Z,0.57
2023-03-02T19:30:40.566Z,0.71
2023-03-02T19:33:09.288Z,0.67
2023-03-02T19:35:39.999Z,0.58
2023-03-02T19:38:08.128Z,0.61
2023-03-02T19:40:36.058Z,0.48
2023-03-02T19:43:07.870Z,0.52
2023-03-02T19:45:36.186Z,0.38
2023-03-02T19:48:05.661Z,0.26
2023-03-02T19:50:33.135Z,0.38
2023-03-02T19:53:00.339Z,0.27
2023-03-02T19:55:27.592Z,0.04
2023-03-02T19:58:00.970Z,-0.04
2023-03-02T20:00:32.441Z,-0.25
2023-03-02T20:03:00.033Z,-0.17
2023-03-02T20:05:27.938Z,-0.06
2023-03-02T20:07:55.641Z,0.12
2023-03-02T20:10:38.540Z,0.31
2023-03-02T20:13:07.417Z,0.45
2023-03-02T20:15:38.085Z,0.50
2023-03-02T20:18:07.358Z,0.62
2023-03-02T20:20:36.400Z,0.70
2023-03-02T20:23:04.515Z,0.73
2023-03-02T20:25:32.316Z,0.63
2023-03-02T20:27:59.954Z,0.72
2023-03-02T20:30:37.108Z,0.78
2023-03-02T20:33:07.189Z,0.82
2023-03-02T20:35:37.758Z,0.73
2023-03-02T20:38:06.529Z,0.80
2023-03-02T20:40:33.766Z,0.50
2023-03-02T20:43:00.969Z,0.46
2023-03-02T20:45:28.837Z,0.31
2023-03-02T20:47:56.142Z,0.17
2023-03-02T20:50:28.041Z,-0.09
2023-03-02T20:52:55.320Z,-0.30
2023-03-02T20:55:22.778Z,-0.21
2023-03-02T20:57:49.985Z,-0.36
2023-03-02T21:00:21.466Z,-0.31
2023-03-02T21:02:49.426Z,-0.13
2023-03-02T21:05:18.490Z,-0.28
2023-03-02T21:07:45.799Z,-0.35
2023-03-02T21:10:17.617Z,-0.12
2023-03-02T21:12:45.636Z,0.04
2023-03-02T21:15:13.886Z,-0.05
2023-03-02T21:17:41.640Z,-0.06
2023-03-02T21:20:09.553Z,-0.52
2023-03-02T21:22:38.078Z,-0.52
2023-03-02T21:25:08.503Z,-0.40
2023-03-02T21:27:36.726Z,-0.29
2023-03-02T21:30:09.277Z,-0.05
2023-03-02T21:32:36.520Z,0.06
2023-03-02T21:35:03.789Z,0.21
2023-03-02T21:37:31.177Z,0.10
2023-03-02T21:39:59.155Z,-0.01
2023-03-02T21:42:27.239Z,-0.02
2023-03-02T21:44:55.122Z,-0.29
2023-03-02T21:47:22.348Z,-0.08
2023-03-02T21:49:49.599Z,0.08
2023-03-02T21:52:16.812Z,0.14
2023-03-02T21:54:44.247Z,0.07
2023-03-02T21:57:13.158Z,-0.15
2023-03-02T21:59:40.614Z,-0.12
2023-03-02T22:02:08.250Z,-0.21
2023-03-02T22:04:35.772Z,-0.39
2023-03-02T22:07:03.006Z,-0.30
2023-03-02T22:09:30.246Z,-0.31
2023-03-02T22:11:58.043Z,-0.47
2023-03-02T22:14:25.260Z,-0.40
2023-03-02T22:16:52.448Z,-0.51
2023-03-02T22:19:31.176Z,-0.49
2023-03-02T22:22:00.356Z,-0.58
2023-03-02T22:24:29.988Z,-0.30
2023-03-02T22:27:19.129Z,-0.21
2023-03-02T22:29:47.458Z,-0.53
2023-03-02T22:32:21.734Z,-0.66
2023-03-02T22:34:51.990Z,-0.72
2023-03-02T22:37:21.897Z,-0.81
2023-03-02T22:39:50.606Z,-0.75
2023-03-02T22:42:20.086Z,-0.83
2023-03-02T22:44:55.833Z,-0.69
2023-03-02T22:47:23.132Z,-0.81
2023-03-02T22:49:58.104Z,-0.68
2023-03-02T22:52:28.063Z,-0.58
2023-03-02T22:54:55.250Z,-0.40
2023-03-02T22:57:34.126Z,-0.50
2023-03-02T23:00:30.369Z,-0.32
2023-03-02T23:02:57.650Z,-0.27
2023-03-02T23:05:33.809Z,-0.17
2023-03-02T23:08:39.599Z,-0.07
2023-03-02T23:11:17.320Z,0.03
2023-03-02T23:13:44.969Z,0.01
2023-03-02T23:16:23.904Z,0.09
2023-03-02T23:18:51.638Z,0.02
2023-03-02T23:21:22.438Z,-0.40
2023-03-02T23:23:50.603Z,-0.57
2023-03-02T23:26:19.451Z,-0.62
2023-03-02T23:28:50.629Z,-0.52
2023-03-02T23:31:18.618Z,-0.47
2023-03-02T23:33:46.175Z,-0.25
2023-03-02T23:36:13.514Z,-0.16
2023-03-02T23:38:41.693Z,-0.09
2023-03-02T23:41:10.035Z,0.04
2023-03-02T23:43:37.268Z,0.13
2023-03-02T23:46:04.597Z,0.21
2023-03-02T23:48:32.318Z,0.07
2023-03-02T23:50:59.752Z,0.03
2023-03-02T23:53:26.959Z,0.12
2023-03-02T23:55:55.236Z,0.07
2023-03-02T23:58:22.663Z,-0.03
